Terminal Aerodrome Forecast
Issued by NWS Upton, NY

Home | Current Version | Previous Version | Text Only | Print | Product List | Glossary On
Versions: 1 2 3 4 5 6 7 8 9 10 11 12 13 14 15 16 17 18 19 20 21 22 23 24 25 26
000
FTUS41 KOKX 300800 AAA
TAFISP
TAF AMD
KISP 300832Z 3009/3106 VRB03KT 6SM -SN SCT025 OVC040
      TEMPO 3011/3014 1SM -SN BR BKN007
     FM301400 28008KT 6SM -SN BKN025 OVC040
      TEMPO 3014/3016 3SM -SHSN BKN015
     FM301600 31015G23KT P6SM VCSH SCT015 BKN025
     FM301900 31015G25KT P6SM SCT025 BKN035
     FM302200 31020G32KT P6SM SCT030 SCT250=

USA.gov is the U.S. government's official web portal to all federal, state and local government web resources and services.